Beacon, Iowa
Current Conditions -  °F | °C
As of 1:15 AM on Saturday 25 Oct 2014 (Local Time) from KOOA Reporting Station
Moderate Fog Moderate Fog  
Wind Chill: 51°   Ceiling: 100
Heat Index: 51°   Visibility: 0mi
Dew Point: 50°   Wind: 6mph
Humidity: 98%   Direction: 270°W
Pressure: 29.97"   Gusts: NA
Location:  41.28°N, 92.68°W
Report Text: KOOA 250615Z AUTO 27005KT M1/4SM FG OVC001 10/10 A2997 RMK AO2 T01030100
Loading
Personal Weather Stations






























Interactive Weather Map
Tropical Storm Tracking
New forecast layout! Learn more

10-Day Weather Forecast

Advertisements
Track Severe Weather on mobile